Terminal Aerodrome Forecast
Issued by NWS

Home | Current Version | Previous Version | Text Only | Print | Product List | Glossary On
Versions: 1 2 3 4 5 6 7 8 9 10 11 12 13 14 15 16 17 18 19 20 21 22 23 24
000
FTUS46 KLOX 290500
TAFSBA
TAF
KSBA 290528Z 2906/3006 VRB03KT P6SM SCT150
     FM291200 VRB03KT P6SM SCT008
     FM291600 16007KT P6SM SCT200
     FM292100 25010KT P6SM SCT200
     FM300200 VRB03KT P6SM SCT200=

USA.gov is the U.S. government's official web portal to all federal, state and local government web resources and services.